Dryden, MI (48428)

11:34 PM EDT on September 01, 2015 (GMT -0400)
Village of Leonard | | Change Station
CLOSE
Current Station
Personal Weather Station
Location: Leonard, MI
Elevation: 1014 ft
Nearby Weather Stations

Elev 1014 ft 42.87 °N, 83.15 °W | Updated 1 second ago

Clear
Clear
68.2 °F
Feels Like 68.2 °F
N
0.0
Wind Variable Wind from SSW
Gusts 0.0 mph

Today
High -- | Low -- °F
--% Chance of Precip.
Yesterday
High -- | Low -- °F
Precip. -- in
6:56 AM 8:07 PM
Waning Gibbous, 84% visible
Pressure 30.06 in
Visibility 1.2 miles
Clouds
Dew Point 62 °F
Humidity 81%
Rainfall 0.00 in
Snow Depth Not available.
UV Not available.
Pollen 10.60 out of 12
Air Quality Not available.
Flu Activity Not available.
METAR KD95 020314Z AUTO 00000KT 1 1/4SM BR VV007 19/19 A3006 RMK AO2 T01900188
Pressure 30.06 in
Visibility 1.2 miles
Clouds
Dew Point 62 °F
Humidity 81%
Rainfall 0.00 in
Snow Depth Not available.
UV Not available.
Pollen 10.60 out of 12
Air Quality Not available.
Flu Activity Not available.
METAR KD95 020314Z AUTO 00000KT 1 1/4SM BR VV007 19/19 A3006 RMK AO2 T01900188

10-Day Weather Forecast

×

Almanac

Astronomy

Sep. 01, 2015 Rise Set
Actual Time
Civil Twilight
Nautical Twilight
Astronomical Twilight
Moon
Length of Visible Light
Length of Day
Tomorrow will be .
, % of the Moon is Illuminated

Today's Extremes

State Highs State Lows

Community

WunderPhotos

Upload Photos

1,851,690 photos uploaded!

WunderBlogs® & News

Nearby

Air Quality

  Air Quality AQ Index Pollutant
Not available.

Snow Depth

Station Depth Elevation

Earthquake Activity

City Distance Mag. Time & Date
Minimum magnitude displayed is 2.5.

Coastal Water Temperatures

Place Temperature

Stations

Nearby Weather Stations

Station Location Temp. Windchill Dew Point Humidity Wind Precip. Elev Updated Type